Terminal Aerodrome Forecast
Issued by NWS Lake Charles, LA

Home | Current Version | Previous Version | Text Only | Print | Product List | Glossary On
Versions: 1 2 3 4 5 6 7 8 9 10 11 12 13 14 15 16
000
FTUS44 KLCH 291500 AAB
TAFLCH
TAF AMD
KLCH 291519Z 2915/3012 07006KT P6SM BKN035 BKN140
     FM291800 33006KT P6SM SCT045 BKN140
     FM292300 VRB03KT P6SM SCT060 SCT140=

USA.gov is the U.S. government's official web portal to all federal, state and local government web resources and services.